sensor_id;sensor_type;location;lat;lon;timestamp;P1;durP1;ratioP1;P2;durP2;ratioP2
47922;SDS011;33688;44.354;9.228;2022-10-19T00:00:07;2.75;;;2.55;;
47922;SDS011;33688;44.354;9.228;2022-10-19T00:02:35;2.88;;;2.40;;
47922;SDS011;33688;44.354;9.228;2022-10-19T00:05:01;2.83;;;2.28;;
47922;SDS011;33688;44.354;9.228;2022-10-19T00:07:27;2.95;;;2.53;;
47922;SDS011;33688;44.354;9.228;2022-10-19T00:09:52;2.60;;;2.40;;
47922;SDS011;33688;44.354;9.228;2022-10-19T00:12:18;3.22;;;2.60;;
47922;SDS011;33688;44.354;9.228;2022-10-19T00:14:44;3.05;;;2.55;;
47922;SDS011;33688;44.354;9.228;2022-10-19T00:17:10;2.60;;;2.40;;
47922;SDS011;33688;44.354;9.228;2022-10-19T00:19:36;3.78;;;2.42;;
47922;SDS011;33688;44.354;9.228;2022-10-19T00:22:02;2.25;;;2.05;;
47922;SDS011;33688;44.354;9.228;2022-10-19T00:24:27;2.42;;;2.10;;
47922;SDS011;33688;44.354;9.228;2022-10-19T00:26:54;2.55;;;2.35;;
47922;SDS011;33688;44.354;9.228;2022-10-19T00:29:20;2.40;;;1.90;;
47922;SDS011;33688;44.354;9.228;2022-10-19T00:31:47;3.28;;;2.83;;
47922;SDS011;33688;44.354;9.228;2022-10-19T00:34:16;2.53;;;2.20;;
47922;SDS011;33688;44.354;9.228;2022-10-19T00:36:42;2.50;;;2.30;;
47922;SDS011;33688;44.354;9.228;2022-10-19T00:39:12;2.80;;;2.50;;
47922;SDS011;33688;44.354;9.228;2022-10-19T00:41:40;2.22;;;1.92;;
47922;SDS011;33688;44.354;9.228;2022-10-19T00:46:39;2.53;;;2.33;;
47922;SDS011;33688;44.354;9.228;2022-10-19T00:51:38;3.42;;;2.63;;
47922;SDS011;33688;44.354;9.228;2022-10-19T00:54:08;2.38;;;2.03;;
47922;SDS011;33688;44.354;9.228;2022-10-19T00:56:36;2.45;;;2.00;;
47922;SDS011;33688;44.354;9.228;2022-10-19T00:59:05;2.42;;;2.17;;
47922;SDS011;33688;44.354;9.228;2022-10-19T01:01:33;2.40;;;1.95;;
47922;SDS011;33688;44.354;9.228;2022-10-19T01:04:00;2.30;;;2.10;;
47922;SDS011;33688;44.354;9.228;2022-10-19T01:06:27;2.30;;;2.10;;
47922;SDS011;33688;44.354;9.228;2022-10-19T01:08:54;2.42;;;2.10;;
47922;SDS011;33688;44.354;9.228;2022-10-19T01:17:08;2.35;;;2.15;;
47922;SDS011;33688;44.354;9.228;2022-10-19T01:25:13;2.40;;;2.20;;
47922;SDS011;33688;44.354;9.228;2022-10-19T01:33:50;2.67;;;2.45;;
47922;SDS011;33688;44.354;9.228;2022-10-19T01:47:37;2.33;;;1.80;;
47922;SDS011;33688;44.354;9.228;2022-10-19T01:52:57;2.38;;;2.03;;
47922;SDS011;33688;44.354;9.228;2022-10-19T01:55:24;1.95;;;1.85;;
47922;SDS011;33688;44.354;9.228;2022-10-19T01:57:53;1.90;;;1.73;;
47922;SDS011;33688;44.354;9.228;2022-10-19T02:00:30;2.67;;;2.30;;
47922;SDS011;33688;44.354;9.228;2022-10-19T02:02:59;2.42;;;2.22;;
47922;SDS011;33688;44.354;9.228;2022-10-19T02:05:29;2.13;;;1.98;;
47922;SDS011;33688;44.354;9.228;2022-10-19T02:07:59;2.53;;;2.33;;
47922;SDS011;33688;44.354;9.228;2022-10-19T02:10:30;2.00;;;1.77;;
47922;SDS011;33688;44.354;9.228;2022-10-19T02:12:59;2.58;;;2.15;;
47922;SDS011;33688;44.354;9.228;2022-10-19T02:15:27;2.10;;;1.88;;
47922;SDS011;33688;44.354;9.228;2022-10-19T02:17:56;2.08;;;1.85;;
47922;SDS011;33688;44.354;9.228;2022-10-19T02:20:26;1.80;;;1.70;;
47922;SDS011;33688;44.354;9.228;2022-10-19T02:22:52;2.38;;;2.17;;
47922;SDS011;33688;44.354;9.228;2022-10-19T02:25:18;2.08;;;1.75;;
47922;SDS011;33688;44.354;9.228;2022-10-19T02:27:45;2.42;;;2.05;;
47922;SDS011;33688;44.354;9.228;2022-10-19T02:30:11;2.22;;;2.03;;
47922;SDS011;33688;44.354;9.228;2022-10-19T02:32:41;2.65;;;1.85;;
47922;SDS011;33688;44.354;9.228;2022-10-19T02:35:09;2.25;;;2.05;;
47922;SDS011;33688;44.354;9.228;2022-10-19T02:37:37;2.00;;;1.80;;
47922;SDS011;33688;44.354;9.228;2022-10-19T02:40:04;1.90;;;1.80;;
47922;SDS011;33688;44.354;9.228;2022-10-19T02:42:32;2.03;;;1.83;;
47922;SDS011;33688;44.354;9.228;2022-10-19T02:47:46;1.75;;;1.65;;
47922;SDS011;33688;44.354;9.228;2022-10-19T02:50:19;1.83;;;1.70;;
47922;SDS011;33688;44.354;9.228;2022-10-19T02:52:46;2.08;;;1.90;;
47922;SDS011;33688;44.354;9.228;2022-10-19T02:55:12;2.10;;;1.80;;
47922;SDS011;33688;44.354;9.228;2022-10-19T02:57:38;2.08;;;1.88;;
47922;SDS011;33688;44.354;9.228;2022-10-19T03:00:04;1.77;;;1.67;;
47922;SDS011;33688;44.354;9.228;2022-10-19T03:02:31;2.20;;;2.00;;
47922;SDS011;33688;44.354;9.228;2022-10-19T03:04:57;1.85;;;1.70;;
47922;SDS011;33688;44.354;9.228;2022-10-19T03:07:23;2.00;;;1.90;;
47922;SDS011;33688;44.354;9.228;2022-10-19T03:09:49;2.60;;;2.25;;
47922;SDS011;33688;44.354;9.228;2022-10-19T03:12:15;1.70;;;1.60;;
47922;SDS011;33688;44.354;9.228;2022-10-19T03:14:41;2.15;;;1.73;;
47922;SDS011;33688;44.354;9.228;2022-10-19T03:17:07;1.63;;;1.52;;
47922;SDS011;33688;44.354;9.228;2022-10-19T03:19:33;2.22;;;2.03;;
47922;SDS011;33688;44.354;9.228;2022-10-19T03:21:59;2.28;;;1.98;;
47922;SDS011;33688;44.354;9.228;2022-10-19T03:24:25;2.75;;;1.90;;
47922;SDS011;33688;44.354;9.228;2022-10-19T03:26:51;2.40;;;2.20;;
47922;SDS011;33688;44.354;9.228;2022-10-19T03:29:17;1.55;;;1.42;;
47922;SDS011;33688;44.354;9.228;2022-10-19T03:31:43;3.85;;;2.25;;
47922;SDS011;33688;44.354;9.228;2022-10-19T03:34:08;2.25;;;1.92;;
47922;SDS011;33688;44.354;9.228;2022-10-19T03:36:35;1.85;;;1.75;;
47922;SDS011;33688;44.354;9.228;2022-10-19T03:39:05;2.15;;;1.92;;
47922;SDS011;33688;44.354;9.228;2022-10-19T03:41:36;1.87;;;1.77;;
47922;SDS011;33688;44.354;9.228;2022-10-19T03:44:03;1.70;;;1.60;;
47922;SDS011;33688;44.354;9.228;2022-10-19T03:46:30;2.00;;;1.70;;
47922;SDS011;33688;44.354;9.228;2022-10-19T03:48:57;1.83;;;1.67;;
47922;SDS011;33688;44.354;9.228;2022-10-19T03:51:23;1.73;;;1.63;;
47922;SDS011;33688;44.354;9.228;2022-10-19T03:53:57;2.17;;;1.98;;
47922;SDS011;33688;44.354;9.228;2022-10-19T03:56:26;1.67;;;1.58;;
47922;SDS011;33688;44.354;9.228;2022-10-19T03:58:55;2.03;;;1.80;;
47922;SDS011;33688;44.354;9.228;2022-10-19T04:01:26;1.85;;;1.73;;
47922;SDS011;33688;44.354;9.228;2022-10-19T04:04:02;1.77;;;1.67;;
47922;SDS011;33688;44.354;9.228;2022-10-19T04:06:35;1.80;;;1.70;;
47922;SDS011;33688;44.354;9.228;2022-10-19T04:09:04;1.90;;;1.80;;
47922;SDS011;33688;44.354;9.228;2022-10-19T04:11:32;1.75;;;1.65;;
47922;SDS011;33688;44.354;9.228;2022-10-19T04:13:59;1.88;;;1.65;;
47922;SDS011;33688;44.354;9.228;2022-10-19T04:16:26;1.77;;;1.63;;
47922;SDS011;33688;44.354;9.228;2022-10-19T04:18:53;1.77;;;1.60;;
47922;SDS011;33688;44.354;9.228;2022-10-19T04:24:02;1.85;;;1.73;;
47922;SDS011;33688;44.354;9.228;2022-10-19T04:26:31;1.77;;;1.52;;
47922;SDS011;33688;44.354;9.228;2022-10-19T04:28:59;1.92;;;1.83;;
47922;SDS011;33688;44.354;9.228;2022-10-19T04:31:26;1.10;;;1.10;;
47922;SDS011;33688;44.354;9.228;2022-10-19T04:33:53;2.08;;;1.88;;
47922;SDS011;33688;44.354;9.228;2022-10-19T04:36:19;2.08;;;1.70;;
47922;SDS011;33688;44.354;9.228;2022-10-19T04:38:45;2.20;;;1.80;;
47922;SDS011;33688;44.354;9.228;2022-10-19T04:41:12;1.63;;;1.52;;
47922;SDS011;33688;44.354;9.228;2022-10-19T04:43:40;1.80;;;1.70;;
47922;SDS011;33688;44.354;9.228;2022-10-19T04:46:10;2.80;;;1.50;;
47922;SDS011;33688;44.354;9.228;2022-10-19T04:48:42;1.42;;;1.33;;
47922;SDS011;33688;44.354;9.228;2022-10-19T04:51:09;1.65;;;1.55;;
47922;SDS011;33688;44.354;9.228;2022-10-19T04:53:37;1.77;;;1.67;;
47922;SDS011;33688;44.354;9.228;2022-10-19T04:56:09;1.80;;;1.70;;
47922;SDS011;33688;44.354;9.228;2022-10-19T04:58:42;1.90;;;1.70;;
47922;SDS011;33688;44.354;9.228;2022-10-19T05:01:14;2.15;;;1.95;;
47922;SDS011;33688;44.354;9.228;2022-10-19T05:03:45;1.95;;;1.85;;
47922;SDS011;33688;44.354;9.228;2022-10-19T05:06:13;2.03;;;1.75;;
47922;SDS011;33688;44.354;9.228;2022-10-19T05:08:40;2.75;;;2.10;;
47922;SDS011;33688;44.354;9.228;2022-10-19T05:11:07;2.47;;;2.08;;
47922;SDS011;33688;44.354;9.228;2022-10-19T05:13:38;1.63;;;1.52;;
47922;SDS011;33688;44.354;9.228;2022-10-19T05:16:05;1.50;;;1.40;;
47922;SDS011;33688;44.354;9.228;2022-10-19T05:18:36;1.73;;;1.63;;
47922;SDS011;33688;44.354;9.228;2022-10-19T05:23:39;1.90;;;1.80;;
47922;SDS011;33688;44.354;9.228;2022-10-19T05:26:07;1.75;;;1.65;;
47922;SDS011;33688;44.354;9.228;2022-10-19T05:28:35;2.33;;;1.60;;
47922;SDS011;33688;44.354;9.228;2022-10-19T05:31:06;2.00;;;1.90;;
47922;SDS011;33688;44.354;9.228;2022-10-19T05:33:44;1.60;;;1.50;;
47922;SDS011;33688;44.354;9.228;2022-10-19T05:38:39;1.40;;;1.30;;
47922;SDS011;33688;44.354;9.228;2022-10-19T05:41:05;1.60;;;1.50;;
47922;SDS011;33688;44.354;9.228;2022-10-19T05:43:31;2.00;;;1.80;;
47922;SDS011;33688;44.354;9.228;2022-10-19T05:46:01;1.80;;;1.70;;
47922;SDS011;33688;44.354;9.228;2022-10-19T05:48:39;1.53;;;1.43;;
47922;SDS011;33688;44.354;9.228;2022-10-19T05:51:06;1.45;;;1.35;;
47922;SDS011;33688;44.354;9.228;2022-10-19T05:53:36;1.70;;;1.60;;
47922;SDS011;33688;44.354;9.228;2022-10-19T05:56:05;1.85;;;1.60;;
47922;SDS011;33688;44.354;9.228;2022-10-19T05:58:33;1.73;;;1.63;;
47922;SDS011;33688;44.354;9.228;2022-10-19T06:01:00;1.50;;;1.40;;
47922;SDS011;33688;44.354;9.228;2022-10-19T06:03:27;1.70;;;1.60;;
47922;SDS011;33688;44.354;9.228;2022-10-19T06:05:54;1.92;;;1.70;;
47922;SDS011;33688;44.354;9.228;2022-10-19T06:08:21;2.00;;;1.80;;
47922;SDS011;33688;44.354;9.228;2022-10-19T06:10:48;1.60;;;1.50;;
47922;SDS011;33688;44.354;9.228;2022-10-19T06:13:15;2.08;;;1.70;;
47922;SDS011;33688;44.354;9.228;2022-10-19T06:15:43;1.90;;;1.80;;
47922;SDS011;33688;44.354;9.228;2022-10-19T06:18:10;1.80;;;1.70;;
47922;SDS011;33688;44.354;9.228;2022-10-19T06:20:38;1.45;;;1.35;;
47922;SDS011;33688;44.354;9.228;2022-10-19T06:23:06;1.88;;;1.77;;
47922;SDS011;33688;44.354;9.228;2022-10-19T06:25:33;1.45;;;1.33;;
47922;SDS011;33688;44.354;9.228;2022-10-19T06:28:00;1.40;;;1.30;;
47922;SDS011;33688;44.354;9.228;2022-10-19T06:30:27;4.40;;;1.73;;
47922;SDS011;33688;44.354;9.228;2022-10-19T06:32:53;2.45;;;2.05;;
47922;SDS011;33688;44.354;9.228;2022-10-19T06:35:19;2.35;;;2.15;;
47922;SDS011;33688;44.354;9.228;2022-10-19T06:37:45;2.90;;;1.95;;
47922;SDS011;33688;44.354;9.228;2022-10-19T06:40:11;3.85;;;2.17;;
47922;SDS011;33688;44.354;9.228;2022-10-19T06:42:37;3.72;;;2.63;;
47922;SDS011;33688;44.354;9.228;2022-10-19T06:45:07;3.05;;;2.10;;
47922;SDS011;33688;44.354;9.228;2022-10-19T06:47:34;2.53;;;2.08;;
47922;SDS011;33688;44.354;9.228;2022-10-19T06:50:01;2.80;;;2.40;;
47922;SDS011;33688;44.354;9.228;2022-10-19T06:52:29;2.80;;;2.33;;
47922;SDS011;33688;44.354;9.228;2022-10-19T06:54:55;4.15;;;2.67;;
47922;SDS011;33688;44.354;9.228;2022-10-19T06:57:21;7.32;;;3.20;;
47922;SDS011;33688;44.354;9.228;2022-10-19T06:59:47;4.75;;;2.53;;
47922;SDS011;33688;44.354;9.228;2022-10-19T07:02:13;6.78;;;2.80;;
47922;SDS011;33688;44.354;9.228;2022-10-19T07:04:39;3.53;;;3.00;;
47922;SDS011;33688;44.354;9.228;2022-10-19T07:07:05;8.98;;;2.90;;
47922;SDS011;33688;44.354;9.228;2022-10-19T07:09:32;3.40;;;2.70;;
47922;SDS011;33688;44.354;9.228;2022-10-19T07:11:58;6.05;;;3.00;;
47922;SDS011;33688;44.354;9.228;2022-10-19T07:14:24;4.45;;;3.15;;
47922;SDS011;33688;44.354;9.228;2022-10-19T07:16:52;3.40;;;3.10;;
47922;SDS011;33688;44.354;9.228;2022-10-19T07:19:19;7.35;;;3.05;;
47922;SDS011;33688;44.354;9.228;2022-10-19T07:21:54;3.72;;;2.78;;
47922;SDS011;33688;44.354;9.228;2022-10-19T07:24:20;3.90;;;3.33;;
47922;SDS011;33688;44.354;9.228;2022-10-19T07:26:46;6.22;;;3.15;;
47922;SDS011;33688;44.354;9.228;2022-10-19T07:29:11;11.38;;;3.80;;
47922;SDS011;33688;44.354;9.228;2022-10-19T07:31:37;9.23;;;3.33;;
47922;SDS011;33688;44.354;9.228;2022-10-19T07:34:03;5.20;;;3.05;;
47922;SDS011;33688;44.354;9.228;2022-10-19T07:36:30;3.70;;;3.28;;
47922;SDS011;33688;44.354;9.228;2022-10-19T07:38:59;7.63;;;3.35;;
47922;SDS011;33688;44.354;9.228;2022-10-19T07:41:26;5.85;;;3.90;;
47922;SDS011;33688;44.354;9.228;2022-10-19T07:43:53;3.40;;;3.10;;
47922;SDS011;33688;44.354;9.228;2022-10-19T07:46:20;5.45;;;3.85;;
47922;SDS011;33688;44.354;9.228;2022-10-19T07:48:51;5.50;;;3.53;;
47922;SDS011;33688;44.354;9.228;2022-10-19T07:51:18;7.43;;;4.30;;
47922;SDS011;33688;44.354;9.228;2022-10-19T07:56:29;7.60;;;3.78;;
47922;SDS011;33688;44.354;9.228;2022-10-19T07:58:56;8.98;;;4.07;;
47922;SDS011;33688;44.354;9.228;2022-10-19T08:01:30;5.95;;;4.57;;
47922;SDS011;33688;44.354;9.228;2022-10-19T08:03:59;10.50;;;4.13;;
47922;SDS011;33688;44.354;9.228;2022-10-19T08:06:26;7.25;;;3.95;;
47922;SDS011;33688;44.354;9.228;2022-10-19T08:08:53;7.95;;;4.10;;
47922;SDS011;33688;44.354;9.228;2022-10-19T08:13:51;9.60;;;4.05;;
47922;SDS011;33688;44.354;9.228;2022-10-19T08:18:58;5.68;;;4.25;;
47922;SDS011;33688;44.354;9.228;2022-10-19T08:21:27;7.05;;;4.13;;
47922;SDS011;33688;44.354;9.228;2022-10-19T08:23:55;9.70;;;4.35;;
47922;SDS011;33688;44.354;9.228;2022-10-19T08:26:21;6.72;;;4.43;;
47922;SDS011;33688;44.354;9.228;2022-10-19T08:28:48;6.85;;;4.55;;
47922;SDS011;33688;44.354;9.228;2022-10-19T08:31:15;5.82;;;4.28;;
47922;SDS011;33688;44.354;9.228;2022-10-19T08:33:44;6.00;;;4.18;;
47922;SDS011;33688;44.354;9.228;2022-10-19T08:36:11;6.03;;;4.05;;
47922;SDS011;33688;44.354;9.228;2022-10-19T08:38:38;4.95;;;4.20;;
47922;SDS011;33688;44.354;9.228;2022-10-19T08:41:14;6.20;;;4.50;;
47922;SDS011;33688;44.354;9.228;2022-10-19T08:49:55;6.45;;;3.80;;
47922;SDS011;33688;44.354;9.228;2022-10-19T08:52:30;6.22;;;4.53;;
47922;SDS011;33688;44.354;9.228;2022-10-19T08:55:01;8.25;;;5.00;;
47922;SDS011;33688;44.354;9.228;2022-10-19T09:06:18;6.22;;;4.28;;
47922;SDS011;33688;44.354;9.228;2022-10-19T09:08:52;7.25;;;4.20;;
47922;SDS011;33688;44.354;9.228;2022-10-19T09:11:21;5.85;;;4.45;;
47922;SDS011;33688;44.354;9.228;2022-10-19T09:16:58;9.00;;;4.70;;
47922;SDS011;33688;44.354;9.228;2022-10-19T09:19:30;6.85;;;4.43;;
47922;SDS011;33688;44.354;9.228;2022-10-19T09:21:57;9.73;;;4.43;;
47922;SDS011;33688;44.354;9.228;2022-10-19T09:27:20;6.65;;;4.07;;
47922;SDS011;33688;44.354;9.228;2022-10-19T09:29:52;8.05;;;3.83;;
47922;SDS011;33688;44.354;9.228;2022-10-19T09:32:27;7.40;;;4.85;;
47922;SDS011;33688;44.354;9.228;2022-10-19T09:35:01;5.57;;;4.25;;
47922;SDS011;33688;44.354;9.228;2022-10-19T09:37:39;5.15;;;3.97;;
47922;SDS011;33688;44.354;9.228;2022-10-19T09:40:16;6.13;;;3.75;;
47922;SDS011;33688;44.354;9.228;2022-10-19T09:42:48;5.97;;;4.55;;
47922;SDS011;33688;44.354;9.228;2022-10-19T09:48:30;7.35;;;4.13;;
47922;SDS011;33688;44.354;9.228;2022-10-19T09:51:10;5.57;;;4.03;;
47922;SDS011;33688;44.354;9.228;2022-10-19T09:53:52;5.15;;;4.20;;
47922;SDS011;33688;44.354;9.228;2022-10-19T09:56:25;7.70;;;4.43;;
47922;SDS011;33688;44.354;9.228;2022-10-19T09:58:53;6.97;;;4.88;;
47922;SDS011;33688;44.354;9.228;2022-10-19T10:01:28;5.68;;;4.30;;
47922;SDS011;33688;44.354;9.228;2022-10-19T10:06:33;5.80;;;4.10;;
47922;SDS011;33688;44.354;9.228;2022-10-19T10:09:00;4.93;;;3.80;;
47922;SDS011;33688;44.354;9.228;2022-10-19T10:11:32;5.50;;;3.75;;
47922;SDS011;33688;44.354;9.228;2022-10-19T10:14:04;5.40;;;4.10;;
47922;SDS011;33688;44.354;9.228;2022-10-19T10:17:17;12.18;;;4.85;;
47922;SDS011;33688;44.354;9.228;2022-10-19T10:19:51;5.85;;;3.97;;
47922;SDS011;33688;44.354;9.228;2022-10-19T10:22:43;6.07;;;4.00;;
47922;SDS011;33688;44.354;9.228;2022-10-19T10:25:23;11.13;;;3.92;;
47922;SDS011;33688;44.354;9.228;2022-10-19T10:28:01;5.40;;;4.03;;
47922;SDS011;33688;44.354;9.228;2022-10-19T10:30:47;6.40;;;3.90;;
47922;SDS011;33688;44.354;9.228;2022-10-19T10:33:24;6.78;;;4.13;;
47922;SDS011;33688;44.354;9.228;2022-10-19T10:35:56;4.50;;;3.75;;
47922;SDS011;33688;44.354;9.228;2022-10-19T10:38:45;8.77;;;4.15;;
47922;SDS011;33688;44.354;9.228;2022-10-19T10:41:16;5.80;;;4.28;;
47922;SDS011;33688;44.354;9.228;2022-10-19T10:43:57;5.88;;;4.10;;
47922;SDS011;33688;44.354;9.228;2022-10-19T10:46:35;4.55;;;4.07;;
47922;SDS011;33688;44.354;9.228;2022-10-19T10:49:15;7.78;;;4.35;;
47922;SDS011;33688;44.354;9.228;2022-10-19T10:51:47;4.82;;;4.03;;
47922;SDS011;33688;44.354;9.228;2022-10-19T10:54:25;6.30;;;3.97;;
47922;SDS011;33688;44.354;9.228;2022-10-19T11:05:52;6.38;;;4.43;;
47922;SDS011;33688;44.354;9.228;2022-10-19T11:13:51;7.35;;;4.85;;
47922;SDS011;33688;44.354;9.228;2022-10-19T11:16:27;6.93;;;4.70;;
47922;SDS011;33688;44.354;9.228;2022-10-19T11:19:22;5.57;;;4.30;;
47922;SDS011;33688;44.354;9.228;2022-10-19T11:22:18;6.72;;;4.00;;
47922;SDS011;33688;44.354;9.228;2022-10-19T11:28:18;6.47;;;4.15;;
47922;SDS011;33688;44.354;9.228;2022-10-19T11:31:15;6.65;;;4.32;;
47922;SDS011;33688;44.354;9.228;2022-10-19T11:42:41;8.15;;;4.47;;
47922;SDS011;33688;44.354;9.228;2022-10-19T11:45:14;5.30;;;3.88;;
47922;SDS011;33688;44.354;9.228;2022-10-19T11:47:59;6.53;;;4.25;;
47922;SDS011;33688;44.354;9.228;2022-10-19T11:50:30;5.47;;;3.95;;
47922;SDS011;33688;44.354;9.228;2022-10-19T12:05:07;4.80;;;4.28;;
47922;SDS011;33688;44.354;9.228;2022-10-19T12:10:46;7.90;;;4.20;;
47922;SDS011;33688;44.354;9.228;2022-10-19T12:13:18;4.70;;;4.10;;
47922;SDS011;33688;44.354;9.228;2022-10-19T12:16:10;6.95;;;4.72;;
47922;SDS011;33688;44.354;9.228;2022-10-19T12:18:47;5.15;;;4.50;;
47922;SDS011;33688;44.354;9.228;2022-10-19T12:24:03;6.30;;;4.22;;
47922;SDS011;33688;44.354;9.228;2022-10-19T12:26:37;6.93;;;4.28;;
47922;SDS011;33688;44.354;9.228;2022-10-19T12:29:06;8.88;;;3.80;;
47922;SDS011;33688;44.354;9.228;2022-10-19T12:31:54;7.90;;;4.07;;
47922;SDS011;33688;44.354;9.228;2022-10-19T12:34:35;11.98;;;4.65;;
47922;SDS011;33688;44.354;9.228;2022-10-19T12:42:56;6.45;;;4.38;;
47922;SDS011;33688;44.354;9.228;2022-10-19T12:48:40;7.90;;;3.78;;
47922;SDS011;33688;44.354;9.228;2022-10-19T12:51:07;6.53;;;3.92;;
47922;SDS011;33688;44.354;9.228;2022-10-19T12:53:37;6.53;;;3.53;;
47922;SDS011;33688;44.354;9.228;2022-10-19T13:01:22;6.45;;;3.20;;
47922;SDS011;33688;44.354;9.228;2022-10-19T13:25:30;4.95;;;3.88;;
47922;SDS011;33688;44.354;9.228;2022-10-19T13:43:20;5.70;;;3.58;;
47922;SDS011;33688;44.354;9.228;2022-10-19T13:45:55;4.13;;;3.72;;
47922;SDS011;33688;44.354;9.228;2022-10-19T14:08:10;4.75;;;4.07;;
47922;SDS011;33688;44.354;9.228;2022-10-19T14:10:23;5.57;;;3.67;;
47922;SDS011;33688;44.354;9.228;2022-10-19T14:12:51;6.03;;;3.42;;
47922;SDS011;33688;44.354;9.228;2022-10-19T14:15:24;4.75;;;3.63;;
47922;SDS011;33688;44.354;9.228;2022-10-19T14:17:54;6.10;;;2.97;;
47922;SDS011;33688;44.354;9.228;2022-10-19T14:23:17;6.30;;;4.18;;
47922;SDS011;33688;44.354;9.228;2022-10-19T14:25:58;6.45;;;4.25;;
47922;SDS011;33688;44.354;9.228;2022-10-19T14:28:28;6.18;;;3.90;;
47922;SDS011;33688;44.354;9.228;2022-10-19T14:30:59;4.10;;;3.70;;
47922;SDS011;33688;44.354;9.228;2022-10-19T14:33:33;3.75;;;3.15;;
47922;SDS011;33688;44.354;9.228;2022-10-19T14:36:02;5.63;;;3.50;;
47922;SDS011;33688;44.354;9.228;2022-10-19T14:38:33;7.30;;;3.20;;
47922;SDS011;33688;44.354;9.228;2022-10-19T14:41:03;5.32;;;3.50;;
47922;SDS011;33688;44.354;9.228;2022-10-19T14:43:31;3.75;;;3.45;;
47922;SDS011;33688;44.354;9.228;2022-10-19T14:46:02;4.75;;;3.78;;
47922;SDS011;33688;44.354;9.228;2022-10-19T14:48:35;8.88;;;3.70;;
47922;SDS011;33688;44.354;9.228;2022-10-19T14:51:06;4.82;;;3.70;;
47922;SDS011;33688;44.354;9.228;2022-10-19T14:56:32;4.75;;;3.20;;
47922;SDS011;33688;44.354;9.228;2022-10-19T14:59:24;7.63;;;3.90;;
47922;SDS011;33688;44.354;9.228;2022-10-19T15:04:27;9.00;;;3.45;;
47922;SDS011;33688;44.354;9.228;2022-10-19T15:06:58;6.50;;;3.63;;
47922;SDS011;33688;44.354;9.228;2022-10-19T15:09:29;4.60;;;3.88;;
47922;SDS011;33688;44.354;9.228;2022-10-19T15:12:07;7.97;;;4.00;;
47922;SDS011;33688;44.354;9.228;2022-10-19T15:14:40;5.03;;;3.45;;
47922;SDS011;33688;44.354;9.228;2022-10-19T15:20:40;6.03;;;3.70;;
47922;SDS011;33688;44.354;9.228;2022-10-19T15:28:52;4.90;;;4.00;;
47922;SDS011;33688;44.354;9.228;2022-10-19T15:31:31;8.35;;;4.35;;
47922;SDS011;33688;44.354;9.228;2022-10-19T15:33:58;3.88;;;3.45;;
47922;SDS011;33688;44.354;9.228;2022-10-19T15:36:27;5.35;;;3.97;;
47922;SDS011;33688;44.354;9.228;2022-10-19T15:39:03;4.47;;;3.40;;
47922;SDS011;33688;44.354;9.228;2022-10-19T15:41:35;7.10;;;3.45;;
47922;SDS011;33688;44.354;9.228;2022-10-19T15:44:04;4.15;;;3.35;;
47922;SDS011;33688;44.354;9.228;2022-10-19T15:49:59;7.28;;;3.05;;
47922;SDS011;33688;44.354;9.228;2022-10-19T15:52:27;3.25;;;2.95;;
47922;SDS011;33688;44.354;9.228;2022-10-19T15:54:57;4.97;;;3.20;;
47922;SDS011;33688;44.354;9.228;2022-10-19T15:59:58;5.95;;;3.03;;
47922;SDS011;33688;44.354;9.228;2022-10-19T16:02:31;4.32;;;3.55;;
47922;SDS011;33688;44.354;9.228;2022-10-19T16:04:57;4.97;;;3.13;;
47922;SDS011;33688;44.354;9.228;2022-10-19T16:07:24;3.50;;;2.70;;
47922;SDS011;33688;44.354;9.228;2022-10-19T16:09:54;5.18;;;3.38;;
47922;SDS011;33688;44.354;9.228;2022-10-19T16:12:21;4.40;;;3.30;;
47922;SDS011;33688;44.354;9.228;2022-10-19T16:14:47;4.85;;;3.25;;
47922;SDS011;33688;44.354;9.228;2022-10-19T16:17:13;4.13;;;3.58;;
47922;SDS011;33688;44.354;9.228;2022-10-19T16:19:40;6.63;;;3.50;;
47922;SDS011;33688;44.354;9.228;2022-10-19T16:22:07;8.20;;;3.05;;
47922;SDS011;33688;44.354;9.228;2022-10-19T16:24:33;4.03;;;2.92;;
47922;SDS011;33688;44.354;9.228;2022-10-19T16:26:59;5.72;;;3.10;;
47922;SDS011;33688;44.354;9.228;2022-10-19T16:29:24;4.93;;;3.42;;
47922;SDS011;33688;44.354;9.228;2022-10-19T16:31:50;4.65;;;3.42;;
47922;SDS011;33688;44.354;9.228;2022-10-19T16:34:16;5.10;;;3.40;;
47922;SDS011;33688;44.354;9.228;2022-10-19T16:36:42;11.82;;;3.60;;
47922;SDS011;33688;44.354;9.228;2022-10-19T16:39:07;5.03;;;3.03;;
47922;SDS011;33688;44.354;9.228;2022-10-19T16:41:33;3.35;;;2.83;;
47922;SDS011;33688;44.354;9.228;2022-10-19T16:43:59;4.95;;;3.10;;
47922;SDS011;33688;44.354;9.228;2022-10-19T16:46:25;8.45;;;3.47;;
47922;SDS011;33688;44.354;9.228;2022-10-19T16:48:51;6.95;;;3.60;;
47922;SDS011;33688;44.354;9.228;2022-10-19T16:54:00;5.07;;;2.70;;
47922;SDS011;33688;44.354;9.228;2022-10-19T16:56:27;6.88;;;3.28;;
47922;SDS011;33688;44.354;9.228;2022-10-19T16:58:56;4.13;;;3.45;;
47922;SDS011;33688;44.354;9.228;2022-10-19T17:01:29;3.33;;;3.03;;
47922;SDS011;33688;44.354;9.228;2022-10-19T17:03:57;6.20;;;3.53;;
47922;SDS011;33688;44.354;9.228;2022-10-19T17:06:23;6.63;;;3.40;;
47922;SDS011;33688;44.354;9.228;2022-10-19T17:08:51;3.60;;;2.88;;
47922;SDS011;33688;44.354;9.228;2022-10-19T17:11:18;4.72;;;3.42;;
47922;SDS011;33688;44.354;9.228;2022-10-19T17:13:49;7.55;;;3.83;;
47922;SDS011;33688;44.354;9.228;2022-10-19T17:16:19;5.07;;;3.70;;
47922;SDS011;33688;44.354;9.228;2022-10-19T17:18:45;3.72;;;2.97;;
47922;SDS011;33688;44.354;9.228;2022-10-19T17:21:12;3.47;;;3.00;;
47922;SDS011;33688;44.354;9.228;2022-10-19T17:23:56;3.75;;;3.38;;
47922;SDS011;33688;44.354;9.228;2022-10-19T17:26:25;4.93;;;3.20;;
47922;SDS011;33688;44.354;9.228;2022-10-19T17:28:53;5.18;;;3.40;;
47922;SDS011;33688;44.354;9.228;2022-10-19T17:31:20;4.50;;;3.70;;
47922;SDS011;33688;44.354;9.228;2022-10-19T17:33:46;3.63;;;2.72;;
47922;SDS011;33688;44.354;9.228;2022-10-19T17:36:18;3.70;;;3.25;;
47922;SDS011;33688;44.354;9.228;2022-10-19T17:38:51;3.83;;;3.08;;
47922;SDS011;33688;44.354;9.228;2022-10-19T17:41:18;4.93;;;3.10;;
47922;SDS011;33688;44.354;9.228;2022-10-19T17:43:45;5.82;;;3.17;;
47922;SDS011;33688;44.354;9.228;2022-10-19T17:46:13;3.88;;;3.17;;
47922;SDS011;33688;44.354;9.228;2022-10-19T17:48:41;5.22;;;3.67;;
47922;SDS011;33688;44.354;9.228;2022-10-19T17:51:12;4.15;;;3.22;;
47922;SDS011;33688;44.354;9.228;2022-10-19T17:56:19;5.57;;;3.47;;
47922;SDS011;33688;44.354;9.228;2022-10-19T17:58:46;4.40;;;3.88;;
47922;SDS011;33688;44.354;9.228;2022-10-19T18:01:14;4.82;;;3.20;;
47922;SDS011;33688;44.354;9.228;2022-10-19T18:03:41;3.80;;;2.90;;
47922;SDS011;33688;44.354;9.228;2022-10-19T18:06:14;3.20;;;2.90;;
47922;SDS011;33688;44.354;9.228;2022-10-19T18:08:49;5.13;;;2.75;;
47922;SDS011;33688;44.354;9.228;2022-10-19T18:11:21;5.57;;;3.35;;
47922;SDS011;33688;44.354;9.228;2022-10-19T18:14:08;3.95;;;3.20;;
47922;SDS011;33688;44.354;9.228;2022-10-19T18:16:40;3.50;;;3.20;;
47922;SDS011;33688;44.354;9.228;2022-10-19T18:19:09;4.25;;;3.08;;
47922;SDS011;33688;44.354;9.228;2022-10-19T18:21:37;4.22;;;3.42;;
47922;SDS011;33688;44.354;9.228;2022-10-19T18:24:06;3.85;;;3.05;;
47922;SDS011;33688;44.354;9.228;2022-10-19T18:26:37;3.20;;;2.90;;
47922;SDS011;33688;44.354;9.228;2022-10-19T18:29:37;4.70;;;3.45;;
47922;SDS011;33688;44.354;9.228;2022-10-19T18:31:56;3.97;;;3.58;;
47922;SDS011;33688;44.354;9.228;2022-10-19T18:34:23;3.97;;;3.17;;
47922;SDS011;33688;44.354;9.228;2022-10-19T18:36:50;4.00;;;3.17;;
47922;SDS011;33688;44.354;9.228;2022-10-19T18:39:16;4.57;;;3.33;;
47922;SDS011;33688;44.354;9.228;2022-10-19T18:41:43;4.85;;;3.15;;
47922;SDS011;33688;44.354;9.228;2022-10-19T18:44:10;6.95;;;3.20;;
47922;SDS011;33688;44.354;9.228;2022-10-19T18:46:37;4.65;;;2.83;;
47922;SDS011;33688;44.354;9.228;2022-10-19T18:49:04;5.97;;;3.47;;